createdAt,value
2022-12-11T00:00:28.321Z,0.30
2022-12-11T00:02:56.931Z,0.20
2022-12-11T00:05:24.385Z,0.30
2022-12-11T00:07:51.579Z,0.20
2022-12-11T00:10:18.739Z,0.20
2022-12-11T00:12:45.603Z,0.20
2022-12-11T00:15:13.250Z,0.30
2022-12-11T00:17:40.276Z,0.30
2022-12-11T00:20:08.496Z,0.20
2022-12-11T00:22:35.651Z,0.20
2022-12-11T00:25:02.703Z,0.13
2022-12-11T00:27:30.393Z,0.20
2022-12-11T00:29:57.413Z,0.20
2022-12-11T00:32:28.001Z,0.10
2022-12-11T00:34:56.748Z,0.10
2022-12-11T00:37:24.189Z,0.10
2022-12-11T00:39:51.579Z,0.10
2022-12-11T00:42:18.603Z,0.10
2022-12-11T00:44:45.805Z,0.20
2022-12-11T00:47:13.158Z,0.17
2022-12-11T00:49:45.116Z,0.20
2022-12-11T00:52:15.896Z,0.10
2022-12-11T00:54:42.902Z,0.10
2022-12-11T00:57:09.815Z,0.10
2022-12-11T00:59:37.188Z,0.10
2022-12-11T01:02:04.056Z,0.10
2022-12-11T01:04:31.019Z,0.20
2022-12-11T01:06:58.446Z,0.10
2022-12-11T01:09:44.304Z,0.15
2022-12-11T01:12:11.448Z,0.17
2022-12-11T01:14:38.328Z,0.10
2022-12-11T01:17:07.913Z,0.08
2022-12-11T01:19:36.226Z,0.10
2022-12-11T01:22:03.395Z,0.10
2022-12-11T01:24:30.277Z,0.10
2022-12-11T01:26:57.432Z,0.10
2022-12-11T01:29:24.475Z,0.10
2022-12-11T01:31:51.574Z,0.10
2022-12-11T01:34:18.544Z,0.10
2022-12-11T01:36:45.526Z,0.10
2022-12-11T01:39:12.428Z,0.03
2022-12-11T01:41:39.275Z,0.08
2022-12-11T01:44:29.191Z,0.10
2022-12-11T01:46:56.413Z,0.10
2022-12-11T01:49:27.030Z,0.10
2022-12-11T01:51:56.038Z,0.10
2022-12-11T01:54:24.335Z,0.10
2022-12-11T01:56:53.998Z,0.10
2022-12-11T01:59:27.395Z,0.10
2022-12-11T02:02:17.563Z,0.10
2022-12-11T02:04:46.348Z,0.10
2022-12-11T02:07:13.220Z,0.10
2022-12-11T02:09:42.751Z,0.10
2022-12-11T02:12:12.849Z,0.10
2022-12-11T02:14:58.592Z,0.00
2022-12-11T02:17:40.281Z,0.00
2022-12-11T02:20:12.917Z,0.10
2022-12-11T02:22:45.763Z,0.10
2022-12-11T02:25:31.615Z,0.03
2022-12-11T02:28:24.459Z,0.00
2022-12-11T02:30:57.450Z,0.10
2022-12-11T02:33:33.840Z,0.10
2022-12-11T02:36:03.988Z,0.08
2022-12-11T02:38:35.601Z,0.10
2022-12-11T02:41:04.996Z,0.00
2022-12-11T02:43:34.493Z,0.10
2022-12-11T02:46:04.736Z,0.10
2022-12-11T02:48:33.497Z,0.10
2022-12-11T02:51:03.425Z,0.10
2022-12-11T02:53:32.634Z,0.20
2022-12-11T02:56:14.635Z,0.20
2022-12-11T02:58:55.300Z,0.10
2022-12-11T03:01:26.496Z,0.25
2022-12-11T03:03:55.066Z,0.20
2022-12-11T03:06:28.002Z,0.10
2022-12-11T03:08:54.982Z,0.10
2022-12-11T03:11:21.776Z,0.20
2022-12-11T03:13:48.730Z,0.10
2022-12-11T03:16:35.511Z,0.20
2022-12-11T03:19:10.719Z,0.10
2022-12-11T03:21:53.259Z,0.10
2022-12-11T03:24:23.013Z,0.17
2022-12-11T03:27:25.445Z,0.20
2022-12-11T03:30:00.603Z,0.20
2022-12-11T03:32:32.177Z,0.15
2022-12-11T03:35:02.298Z,0.20
2022-12-11T03:37:33.051Z,0.20
2022-12-11T03:40:04.786Z,0.10
2022-12-11T03:42:32.421Z,0.20
2022-12-11T03:45:01.394Z,0.20
2022-12-11T03:47:29.171Z,0.20
2022-12-11T03:49:58.786Z,0.20
2022-12-11T03:52:27.896Z,0.28
2022-12-11T03:54:59.655Z,0.10
2022-12-11T03:57:33.950Z,0.20
2022-12-11T04:00:01.114Z,0.20
2022-12-11T04:02:27.946Z,0.20
2022-12-11T04:04:54.898Z,0.25
2022-12-11T04:07:21.880Z,0.13
2022-12-11T04:09:48.907Z,0.10
2022-12-11T04:12:15.770Z,0.20
2022-12-11T04:15:01.223Z,0.20
2022-12-11T04:17:48.727Z,0.20
2022-12-11T04:20:34.409Z,0.20
2022-12-11T04:23:22.814Z,0.20
2022-12-11T04:25:49.907Z,0.20
2022-12-11T04:28:16.890Z,0.20
2022-12-11T04:30:51.759Z,0.17
2022-12-11T04:33:18.624Z,0.20
2022-12-11T04:35:45.477Z,0.20
2022-12-11T04:38:12.356Z,0.20
2022-12-11T04:40:39.216Z,0.20
2022-12-11T04:43:06.042Z,0.20
2022-12-11T04:45:32.945Z,0.20
2022-12-11T04:47:59.896Z,0.20
2022-12-11T04:50:26.826Z,0.30
2022-12-11T04:52:57.814Z,0.30
2022-12-11T04:55:24.725Z,0.25
2022-12-11T04:57:51.519Z,0.20
2022-12-11T05:00:18.445Z,0.10
2022-12-11T05:02:45.400Z,0.20
2022-12-11T05:05:13.263Z,0.20
2022-12-11T05:07:41.297Z,0.20
2022-12-11T05:10:08.929Z,0.20
2022-12-11T05:12:35.751Z,0.20
2022-12-11T05:15:02.760Z,0.20
2022-12-11T05:17:29.614Z,0.57
2022-12-11T05:19:56.420Z,0.20
2022-12-11T05:22:23.253Z,0.25
2022-12-11T05:24:50.089Z,0.13
2022-12-11T05:27:16.887Z,0.15
2022-12-11T05:29:43.716Z,0.20
2022-12-11T05:32:10.695Z,0.30
2022-12-11T05:34:37.520Z,0.30
2022-12-11T05:37:04.382Z,0.20
2022-12-11T05:39:31.342Z,0.38
2022-12-11T05:41:58.210Z,0.20
2022-12-11T05:44:25.781Z,0.20
2022-12-11T05:46:52.693Z,0.20
2022-12-11T05:49:23.559Z,0.20
2022-12-11T05:51:54.240Z,0.17
2022-12-11T05:54:21.077Z,0.30
2022-12-11T05:56:50.702Z,0.30
2022-12-11T05:59:19.224Z,0.30
2022-12-11T06:01:46.255Z,0.20
2022-12-11T06:04:13.822Z,0.20
2022-12-11T06:06:40.907Z,0.22
2022-12-11T06:09:08.432Z,0.22
2022-12-11T06:11:36.145Z,0.35
2022-12-11T06:14:04.195Z,0.20
2022-12-11T06:16:31.057Z,0.20
2022-12-11T06:18:58.655Z,0.40
2022-12-11T06:21:27.431Z,0.35
2022-12-11T06:23:55.990Z,0.30
2022-12-11T06:26:23.032Z,0.20
2022-12-11T06:28:50.867Z,0.30
2022-12-11T06:31:18.559Z,0.30
2022-12-11T06:33:45.958Z,0.20
2022-12-11T06:36:16.196Z,0.20
2022-12-11T06:38:43.421Z,0.20
2022-12-11T06:41:10.722Z,0.30
2022-12-11T06:43:40.394Z,0.25
2022-12-11T06:46:09.852Z,0.30
2022-12-11T06:48:37.359Z,0.25
2022-12-11T06:51:12.683Z,0.28
2022-12-11T06:53:40.582Z,0.20
2022-12-11T06:56:11.027Z,0.20
2022-12-11T06:58:38.874Z,0.20
2022-12-11T07:01:18.645Z,0.25
2022-12-11T07:03:45.711Z,0.30
2022-12-11T07:06:13.221Z,0.30
2022-12-11T07:08:40.491Z,0.20
2022-12-11T07:11:10.296Z,0.20
2022-12-11T07:13:37.543Z,0.30
2022-12-11T07:16:10.851Z,0.30
2022-12-11T07:18:39.232Z,0.38
2022-12-11T07:21:07.300Z,0.22
2022-12-11T07:23:35.492Z,0.20
2022-12-11T07:26:07.549Z,0.15
2022-12-11T07:28:35.443Z,0.40
2022-12-11T07:31:15.052Z,0.30
2022-12-11T07:33:43.017Z,0.20
2022-12-11T07:36:12.624Z,0.20
2022-12-11T07:38:39.630Z,0.20
2022-12-11T07:41:09.163Z,0.25
2022-12-11T07:43:36.683Z,0.30
2022-12-11T07:46:09.239Z,0.30
2022-12-11T07:48:37.413Z,0.20
2022-12-11T07:51:16.655Z,0.35
2022-12-11T07:53:45.644Z,0.30
2022-12-11T07:56:13.423Z,0.50
2022-12-11T07:58:40.423Z,0.40
2022-12-11T08:01:13.606Z,0.57
2022-12-11T08:03:40.868Z,0.35
2022-12-11T08:06:08.086Z,0.40
2022-12-11T08:08:35.158Z,0.82
2022-12-11T08:11:06.156Z,0.50
2022-12-11T08:13:33.646Z,0.40
2022-12-11T08:16:04.940Z,0.70
2022-12-11T08:20:58.740Z,0.30
2022-12-11T08:23:25.835Z,0.40
2022-12-11T08:25:52.711Z,0.50
2022-12-11T08:28:19.601Z,0.30
2022-12-11T08:30:46.597Z,0.30
2022-12-11T08:33:13.490Z,0.40
2022-12-11T08:35:41.058Z,0.20
2022-12-11T08:38:08.070Z,0.40
2022-12-11T08:40:35.178Z,0.20
2022-12-11T08:43:02.162Z,0.40
2022-12-11T08:45:29.194Z,0.30
2022-12-11T08:47:56.434Z,0.20
2022-12-11T08:50:23.484Z,0.28
2022-12-11T08:52:50.445Z,0.80
2022-12-11T08:55:17.609Z,0.38
2022-12-11T08:57:44.645Z,0.55
2022-12-11T09:00:13.515Z,0.40
2022-12-11T09:02:40.730Z,0.45
2022-12-11T09:05:10.386Z,2.92
2022-12-11T09:07:39.146Z,3.25
2022-12-11T09:10:07.803Z,2.88
2022-12-11T09:12:34.959Z,3.15
2022-12-11T09:15:02.023Z,3.55
2022-12-11T09:17:29.033Z,4.03
2022-12-11T09:19:56.259Z,4.10
2022-12-11T09:22:23.491Z,4.25
2022-12-11T09:24:50.409Z,4.43
2022-12-11T09:27:17.660Z,4.05
2022-12-11T09:29:44.596Z,4.07
2022-12-11T09:32:11.820Z,3.65
2022-12-11T09:34:38.742Z,4.82
2022-12-11T09:37:05.696Z,4.05
2022-12-11T09:39:32.617Z,4.30
2022-12-11T09:42:02.494Z,4.80
2022-12-11T09:44:32.992Z,4.40
2022-12-11T09:47:00.477Z,4.97
2022-12-11T09:49:32.705Z,4.80
2022-12-11T09:52:12.651Z,4.30
2022-12-11T09:54:48.271Z,4.15
2022-12-11T09:57:24.646Z,4.07
2022-12-11T10:00:09.823Z,3.92
2022-12-11T10:03:01.931Z,5.75
2022-12-11T10:06:01.047Z,9.32
2022-12-11T10:08:41.316Z,7.38
2022-12-11T10:11:25.926Z,6.13
2022-12-11T10:14:05.965Z,5.55
2022-12-11T10:16:39.993Z,6.07
2022-12-11T10:19:15.189Z,5.72
2022-12-11T10:21:43.169Z,4.35
2022-12-11T10:25:10.706Z,4.60
2022-12-11T10:27:40.670Z,4.00
2022-12-11T10:30:13.716Z,3.55
2022-12-11T10:33:09.093Z,3.72
2022-12-11T10:35:57.910Z,2.55
2022-12-11T10:38:29.815Z,2.85
2022-12-11T10:41:01.104Z,3.08
2022-12-11T10:46:01.091Z,3.92
2022-12-11T10:48:28.054Z,3.15
2022-12-11T10:51:01.990Z,5.15
2022-12-11T10:53:30.128Z,5.63
2022-12-11T10:55:58.971Z,5.45
2022-12-11T10:58:29.814Z,4.45
2022-12-11T11:01:19.571Z,4.30
2022-12-11T11:04:03.670Z,3.67
2022-12-11T11:06:30.800Z,3.60
2022-12-11T11:08:59.986Z,4.40
2022-12-11T11:11:34.260Z,5.10
2022-12-11T11:14:21.594Z,4.68
2022-12-11T11:16:51.058Z,3.47
2022-12-11T11:19:31.615Z,3.55
2022-12-11T11:22:05.924Z,3.90
2022-12-11T11:24:45.909Z,3.25
2022-12-11T11:27:35.595Z,3.15
2022-12-11T11:30:24.964Z,2.47
2022-12-11T11:32:56.429Z,3.00
2022-12-11T11:35:34.316Z,2.80
2022-12-11T11:38:03.935Z,3.10
2022-12-11T11:40:50.266Z,2.47
2022-12-11T11:43:24.628Z,1.90
2022-12-11T11:45:57.002Z,2.45
2022-12-11T11:48:57.056Z,2.15
2022-12-11T11:51:36.825Z,2.53
2022-12-11T11:54:21.493Z,2.40
2022-12-11T11:56:51.925Z,2.40
2022-12-11T11:59:30.282Z,2.20
2022-12-11T12:01:58.373Z,2.13
2022-12-11T12:04:33.000Z,2.28
2022-12-11T12:07:06.117Z,2.47
2022-12-11T12:09:54.925Z,1.88
2022-12-11T12:12:37.716Z,1.70
2022-12-11T12:15:22.520Z,1.73
2022-12-11T12:17:55.122Z,1.77
2022-12-11T12:20:51.019Z,1.63
2022-12-11T12:23:39.844Z,1.70
2022-12-11T12:26:15.571Z,1.75
2022-12-11T12:29:07.348Z,1.65
2022-12-11T12:31:59.506Z,1.75
2022-12-11T12:34:44.745Z,2.47
2022-12-11T12:37:23.897Z,2.10
2022-12-11T12:40:13.489Z,2.00
2022-12-11T12:43:12.716Z,1.70
2022-12-11T12:45:42.661Z,1.65
2022-12-11T12:48:10.254Z,1.50
2022-12-11T12:50:48.335Z,2.83
2022-12-11T12:53:27.893Z,2.40
2022-12-11T12:55:55.858Z,2.17
2022-12-11T12:58:29.728Z,1.60
2022-12-11T13:01:15.250Z,1.88
2022-12-11T13:04:06.074Z,2.05
2022-12-11T13:06:47.105Z,1.50
2022-12-11T13:09:22.535Z,2.50
2022-12-11T13:11:54.188Z,1.80
2022-12-11T13:14:21.706Z,1.50
2022-12-11T13:16:51.523Z,1.63
2022-12-11T13:19:31.329Z,1.30
2022-12-11T13:22:04.388Z,1.10
2022-12-11T13:24:34.251Z,1.83
2022-12-11T13:27:22.834Z,1.50
2022-12-11T13:29:52.957Z,1.40
2022-12-11T13:32:30.346Z,1.30
2022-12-11T13:35:00.507Z,1.40
2022-12-11T13:37:39.128Z,0.98
2022-12-11T13:40:15.283Z,1.00
2022-12-11T13:43:04.317Z,1.20
2022-12-11T13:45:34.224Z,1.00
2022-12-11T13:48:01.848Z,1.00
2022-12-11T13:50:31.801Z,0.80
2022-12-11T13:53:03.886Z,0.80
2022-12-11T13:55:35.587Z,0.75
2022-12-11T13:58:02.760Z,0.93
2022-12-11T14:00:33.083Z,0.77
2022-12-11T14:03:07.823Z,1.10
2022-12-11T14:05:35.706Z,1.05
2022-12-11T14:08:11.171Z,1.30
2022-12-11T14:10:39.679Z,0.90
2022-12-11T14:13:19.904Z,0.90
2022-12-11T14:15:47.323Z,1.33
2022-12-11T14:18:21.293Z,0.98
2022-12-11T14:20:58.228Z,1.05
2022-12-11T14:23:33.861Z,0.90
2022-12-11T14:26:02.254Z,1.42
2022-12-11T14:28:37.750Z,1.42
2022-12-11T14:31:06.600Z,0.82
2022-12-11T14:33:38.478Z,0.80
2022-12-11T14:36:07.024Z,0.85
2022-12-11T14:38:38.512Z,0.60
2022-12-11T14:41:38.042Z,3.78
2022-12-11T14:44:08.466Z,3.28
2022-12-11T14:46:49.460Z,2.10
2022-12-11T14:49:34.722Z,2.10
2022-12-11T14:52:03.241Z,2.40
2022-12-11T14:54:38.923Z,2.47
2022-12-11T14:57:08.512Z,2.38
2022-12-11T14:59:48.169Z,2.25
2022-12-11T15:02:31.014Z,1.77
2022-12-11T15:05:00.866Z,2.22
2022-12-11T15:07:27.828Z,2.38
2022-12-11T15:09:55.100Z,2.22
2022-12-11T15:12:22.449Z,2.00
2022-12-11T15:14:55.768Z,1.92
2022-12-11T15:17:24.479Z,2.67
2022-12-11T15:19:55.176Z,2.10
2022-12-11T15:22:25.486Z,2.40
2022-12-11T15:24:55.141Z,2.03
2022-12-11T15:27:39.560Z,2.00
2022-12-11T15:30:18.872Z,1.75
2022-12-11T15:32:47.128Z,1.67
2022-12-11T15:35:27.491Z,1.77
2022-12-11T15:37:56.503Z,1.90
2022-12-11T15:40:25.046Z,1.77
2022-12-11T15:42:52.712Z,2.05
2022-12-11T15:45:23.305Z,1.73
2022-12-11T15:47:51.570Z,1.98
2022-12-11T15:50:23.471Z,1.98
2022-12-11T15:52:52.960Z,1.45
2022-12-11T15:55:21.763Z,1.50
2022-12-11T15:57:55.508Z,1.63
2022-12-11T16:00:24.293Z,1.70
2022-12-11T16:02:52.446Z,2.17
2022-12-11T16:05:20.697Z,1.58
2022-12-11T16:07:48.998Z,1.23
2022-12-11T16:10:18.400Z,1.48
2022-12-11T16:12:46.573Z,1.73
2022-12-11T16:15:21.468Z,1.70
2022-12-11T16:17:50.464Z,1.48
2022-12-11T16:20:17.877Z,2.25
2022-12-11T16:22:45.316Z,1.60
2022-12-11T16:25:14.070Z,1.40
2022-12-11T16:27:43.514Z,1.70
2022-12-11T16:30:11.903Z,1.38
2022-12-11T16:32:39.513Z,2.08
2022-12-11T16:35:11.294Z,1.30
2022-12-11T16:37:39.325Z,1.45
2022-12-11T16:40:07.176Z,1.38
2022-12-11T16:42:36.250Z,1.60
2022-12-11T16:45:13.644Z,1.30
2022-12-11T16:47:40.941Z,1.40
2022-12-11T16:50:09.322Z,1.35
2022-12-11T16:52:36.882Z,1.27
2022-12-11T16:55:04.981Z,1.58
2022-12-11T16:57:32.426Z,1.52
2022-12-11T17:00:00.208Z,1.58
2022-12-11T17:02:27.869Z,1.63
2022-12-11T17:04:55.421Z,1.30
2022-12-11T17:07:22.434Z,1.52
2022-12-11T17:09:49.540Z,2.50
2022-12-11T17:12:16.867Z,2.22
2022-12-11T17:14:44.031Z,1.73
2022-12-11T17:17:10.931Z,1.70
2022-12-11T17:19:39.549Z,1.70
2022-12-11T17:22:06.425Z,2.38
2022-12-11T17:24:35.495Z,2.65
2022-12-11T17:27:02.942Z,2.78
2022-12-11T17:29:30.143Z,2.58
2022-12-11T17:31:57.077Z,2.80
2022-12-11T17:34:24.478Z,2.88
2022-12-11T17:36:52.292Z,2.90
2022-12-11T17:39:20.200Z,2.83
2022-12-11T17:41:50.325Z,2.72
2022-12-11T17:44:17.411Z,3.13
2022-12-11T17:46:44.350Z,2.97
2022-12-11T17:49:12.082Z,3.00
2022-12-11T17:51:39.074Z,3.63
2022-12-11T17:54:06.833Z,3.65
2022-12-11T17:56:37.241Z,3.47
2022-12-11T17:59:04.936Z,2.90
2022-12-11T18:01:34.147Z,3.10
2022-12-11T18:04:02.265Z,3.72
2022-12-11T18:06:30.307Z,3.35
2022-12-11T18:08:58.206Z,3.97
2022-12-11T18:11:25.799Z,2.63
2022-12-11T18:13:53.626Z,3.97
2022-12-11T18:16:31.145Z,3.60
2022-12-11T18:18:58.540Z,3.58
2022-12-11T18:21:29.078Z,3.30
2022-12-11T18:23:56.466Z,3.17
2022-12-11T18:26:24.051Z,3.20
2022-12-11T18:28:53.461Z,3.20
2022-12-11T18:31:21.504Z,3.45
2022-12-11T18:33:50.299Z,3.40
2022-12-11T18:36:19.812Z,3.75
2022-12-11T18:38:48.372Z,3.35
2022-12-11T18:41:18.263Z,3.13
2022-12-11T18:43:46.120Z,3.60
2022-12-11T18:46:16.804Z,7.15
2022-12-11T18:48:45.971Z,4.63
2022-12-11T18:51:20.732Z,4.05
2022-12-11T18:53:48.649Z,4.10
2022-12-11T18:56:20.982Z,3.50
2022-12-11T18:58:50.446Z,4.10
2022-12-11T19:01:27.360Z,3.75
2022-12-11T19:04:02.003Z,3.65
2022-12-11T19:06:36.260Z,8.73
2022-12-11T19:09:06.306Z,19.33
2022-12-11T19:11:36.089Z,15.02
2022-12-11T19:14:06.282Z,19.05
2022-12-11T19:16:40.291Z,23.27
2022-12-11T19:19:16.920Z,26.25
2022-12-11T19:21:45.023Z,20.88
2022-12-11T19:24:20.152Z,39.85
2022-12-11T19:26:48.564Z,45.13
2022-12-11T19:29:23.451Z,60.92
2022-12-11T19:31:50.633Z,47.65
2022-12-11T19:34:18.049Z,50.25
2022-12-11T19:36:45.740Z,47.08
2022-12-11T19:39:15.318Z,42.85
2022-12-11T19:41:42.787Z,40.05
2022-12-11T19:44:10.609Z,39.50
2022-12-11T19:46:38.385Z,35.70
2022-12-11T19:49:06.378Z,34.20
2022-12-11T19:51:38.797Z,34.53
2022-12-11T19:54:09.267Z,32.95
2022-12-11T19:56:38.597Z,29.60
2022-12-11T19:59:08.737Z,27.67
2022-12-11T20:01:38.273Z,26.85
2022-12-11T20:04:10.653Z,23.80
2022-12-11T20:06:40.626Z,24.00
2022-12-11T20:09:12.179Z,21.20
2022-12-11T20:11:42.353Z,19.40
2022-12-11T20:14:09.591Z,16.20
2022-12-11T20:17:09.181Z,20.42
2022-12-11T20:19:29.028Z,14.27
2022-12-11T20:21:56.806Z,14.20
2022-12-11T20:24:24.434Z,14.18
2022-12-11T20:26:54.064Z,12.85
2022-12-11T20:29:21.144Z,9.90
2022-12-11T20:31:51.010Z,15.15
2022-12-11T20:34:18.559Z,11.02
2022-12-11T20:36:48.464Z,15.35
2022-12-11T20:39:16.261Z,11.10
2022-12-11T20:41:44.382Z,9.57
2022-12-11T20:44:18.832Z,9.57
2022-12-11T20:46:46.584Z,11.05
2022-12-11T20:49:14.686Z,9.40
2022-12-11T20:51:42.226Z,7.95
2022-12-11T20:54:11.036Z,7.93
2022-12-11T20:56:38.829Z,8.45
2022-12-11T20:59:06.155Z,8.85
2022-12-11T21:01:35.724Z,7.78
2022-12-11T21:04:03.952Z,7.43
2022-12-11T21:06:37.481Z,7.50
2022-12-11T21:09:12.493Z,6.65
2022-12-11T21:11:40.453Z,6.63
2022-12-11T21:14:07.625Z,6.32
2022-12-11T21:16:37.052Z,5.95
2022-12-11T21:19:06.108Z,6.05
2022-12-11T21:21:34.436Z,6.00
2022-12-11T21:24:01.647Z,5.80
2022-12-11T21:26:28.865Z,5.60
2022-12-11T21:28:56.080Z,5.57
2022-12-11T21:31:23.640Z,5.30
2022-12-11T21:33:52.285Z,5.32
2022-12-11T21:36:21.479Z,5.18
2022-12-11T21:38:49.659Z,5.15
2022-12-11T21:41:22.120Z,4.32
2022-12-11T21:45:06.984Z,3.55
2022-12-11T21:46:42.421Z,3.97
2022-12-11T21:49:09.840Z,3.70
2022-12-11T21:51:44.053Z,3.15
2022-12-11T21:54:17.137Z,3.38
2022-12-11T21:56:45.339Z,2.90
2022-12-11T21:59:12.862Z,3.33
2022-12-11T22:01:42.728Z,2.85
2022-12-11T22:04:11.444Z,3.25
2022-12-11T22:06:42.401Z,3.60
2022-12-11T22:09:10.765Z,3.17
2022-12-11T22:11:37.803Z,3.70
2022-12-11T22:14:05.261Z,3.58
2022-12-11T22:16:32.908Z,3.50
2022-12-11T22:19:00.349Z,3.05
2022-12-11T22:21:28.094Z,3.45
2022-12-11T22:23:55.213Z,3.72
2022-12-11T22:26:25.772Z,3.85
2022-12-11T22:28:52.943Z,3.97
2022-12-11T22:31:23.081Z,3.67
2022-12-11T22:33:51.457Z,4.05
2022-12-11T22:36:19.279Z,4.20
2022-12-11T22:38:47.394Z,3.95
2022-12-11T22:41:26.307Z,3.85
2022-12-11T22:43:54.124Z,4.03
2022-12-11T22:46:24.206Z,3.90
2022-12-11T22:48:51.591Z,4.10
2022-12-11T22:51:18.958Z,3.90
2022-12-11T22:53:46.303Z,3.97
2022-12-11T22:56:15.493Z,4.05
2022-12-11T22:58:43.132Z,3.92
2022-12-11T23:01:17.782Z,4.30
2022-12-11T23:03:45.222Z,4.30
2022-12-11T23:06:15.119Z,4.00
2022-12-11T23:08:43.194Z,3.63
2022-12-11T23:11:17.655Z,3.90
2022-12-11T23:13:44.918Z,3.70
2022-12-11T23:16:12.706Z,3.65
2022-12-11T23:18:39.926Z,3.83
2022-12-11T23:21:07.485Z,3.97
2022-12-11T23:23:34.452Z,3.88
2022-12-11T23:26:01.655Z,3.92
2022-12-11T23:28:28.559Z,4.30
2022-12-11T23:30:55.474Z,3.78
2022-12-11T23:33:22.608Z,3.80
2022-12-11T23:35:49.789Z,4.13
2022-12-11T23:38:17.729Z,3.67
2022-12-11T23:40:45.097Z,4.43
2022-12-11T23:43:12.071Z,3.78
2022-12-11T23:45:38.979Z,3.75
2022-12-11T23:48:06.028Z,3.78
2022-12-11T23:50:33.243Z,4.00
2022-12-11T23:53:00.836Z,3.60
2022-12-11T23:55:28.385Z,3.45
2022-12-11T23:57:56.443Z,3.67
